Salt Lake City, UT

12:51 AM MST on January 26, 2015 (GMT -0700)
Salt Lake City International | Change Station
CLOSE
Current Station
Airport
Location: Salt Lake City,
Elevation: 4226 ft
Nearby Weather Stations

Elev 4226 ft 40.77 °N, 111.97 °W | Updated 58 minutes ago

Clear
Clear
33 °F
Feels Like 33 °F
N
0
Wind Variable Wind from North

Today
High -- | Low -- °F
--% Chance of Precip.
Yesterday
High -- | Low -- °F
Precip. -- in
7:43 AM 5:37 PM
Waxing Crescent, 40% visible
Pressure 30.42 in
Visibility 8.0 miles
Clouds Clear
Dew Point 29 °F
Humidity 85%
Rainfall 0.00 in
Snow Depth Not available.
UV 0 out of 12
Pollen .10 out of 12
Air Quality Not available.
Flu Activity Not available.
METAR KSLC 260653Z 00000KT 8SM CLR 01/M02 A3042 RMK AO2 SLP301 T00061017 401111006

More Conditions Fewer Conditions

Pressure 30.42 in
Visibility 8.0 miles
Clouds Clear
Dew Point 29 °F
Humidity 85%
Rainfall 0.00 in
Snow Depth Not available.
UV 0 out of 12
Pollen .10 out of 12
Air Quality Not available.
Flu Activity Not available.
METAR KSLC 260653Z 00000KT 8SM CLR 01/M02 A3042 RMK AO2 SLP301 T00061017 401111006

More Conditions Fewer Conditions

10-Day Weather Forecast

Almanac

Astronomy

Jan. 26, 2015 Rise Set
Actual Time
Civil Twilight
Nautical Twilight
Astronomical Twilight
Moon
Length of Visible Light
Length of Day
Tomorrow will be .
, % of the Moon is Illuminated

Today's Extremes

State Highs State Lows

Community

WunderPhotos

Upload Photos

1,790,155 photos uploaded!

WunderBlogs® & News

Nearby

Air Quality

  Air Quality AQ Index Pollutant
Not available.

Snow Depth

Station Depth Elevation

Earthquake Activity

City Distance Mag. Time & Date
Minimum magnitude displayed is 2.5.

Coastal Water Temperatures

Place Temperature

Nearby Weather Stations